sensor_id;sensor_type;location;lat;lon;timestamp;P1;durP1;ratioP1;P2;durP2;ratioP2
13868;SDS011;7004;48.206;16.402;2022-09-27T00:01:02;6.23;;;4.40;;
13868;SDS011;7004;48.206;16.402;2022-09-27T00:03:31;5.17;;;4.07;;
13868;SDS011;7004;48.206;16.402;2022-09-27T00:06:01;5.30;;;4.60;;
13868;SDS011;7004;48.206;16.402;2022-09-27T00:08:34;5.50;;;4.73;;
13868;SDS011;7004;48.206;16.402;2022-09-27T00:11:03;4.97;;;4.47;;
13868;SDS011;7004;48.206;16.402;2022-09-27T00:13:34;4.40;;;4.00;;
13868;SDS011;7004;48.206;16.402;2022-09-27T00:16:02;6.13;;;4.53;;
13868;SDS011;7004;48.206;16.402;2022-09-27T00:18:29;5.93;;;4.93;;
13868;SDS011;7004;48.206;16.402;2022-09-27T00:21:04;5.30;;;4.40;;
13868;SDS011;7004;48.206;16.402;2022-09-27T00:23:32;5.57;;;4.57;;
13868;SDS011;7004;48.206;16.402;2022-09-27T00:25:59;6.63;;;5.17;;
13868;SDS011;7004;48.206;16.402;2022-09-27T00:28:26;5.63;;;4.33;;
13868;SDS011;7004;48.206;16.402;2022-09-27T00:30:52;6.27;;;4.93;;
13868;SDS011;7004;48.206;16.402;2022-09-27T00:33:19;6.73;;;5.07;;
13868;SDS011;7004;48.206;16.402;2022-09-27T00:35:45;5.37;;;4.77;;
13868;SDS011;7004;48.206;16.402;2022-09-27T00:38:11;4.50;;;4.10;;
13868;SDS011;7004;48.206;16.402;2022-09-27T00:40:38;5.93;;;5.20;;
13868;SDS011;7004;48.206;16.402;2022-09-27T00:43:22;5.17;;;4.67;;
13868;SDS011;7004;48.206;16.402;2022-09-27T00:45:53;4.83;;;4.30;;
13868;SDS011;7004;48.206;16.402;2022-09-27T00:48:26;6.20;;;5.07;;
13868;SDS011;7004;48.206;16.402;2022-09-27T00:50:58;5.83;;;4.40;;
13868;SDS011;7004;48.206;16.402;2022-09-27T00:53:34;6.17;;;4.70;;
13868;SDS011;7004;48.206;16.402;2022-09-27T00:56:17;5.03;;;4.40;;
13868;SDS011;7004;48.206;16.402;2022-09-27T00:58:49;6.13;;;5.27;;
13868;SDS011;7004;48.206;16.402;2022-09-27T01:01:22;5.50;;;4.40;;
13868;SDS011;7004;48.206;16.402;2022-09-27T01:03:51;4.70;;;4.30;;
13868;SDS011;7004;48.206;16.402;2022-09-27T01:06:27;5.00;;;4.50;;
13868;SDS011;7004;48.206;16.402;2022-09-27T01:08:53;7.07;;;4.67;;
13868;SDS011;7004;48.206;16.402;2022-09-27T01:11:24;5.50;;;5.00;;
13868;SDS011;7004;48.206;16.402;2022-09-27T01:16:46;7.60;;;5.30;;
13868;SDS011;7004;48.206;16.402;2022-09-27T01:34:05;5.50;;;4.90;;
13868;SDS011;7004;48.206;16.402;2022-09-27T01:44:47;5.93;;;5.07;;
13868;SDS011;7004;48.206;16.402;2022-09-27T01:47:17;4.77;;;4.37;;
13868;SDS011;7004;48.206;16.402;2022-09-27T01:52:32;5.43;;;4.93;;
13868;SDS011;7004;48.206;16.402;2022-09-27T01:55:14;5.87;;;5.03;;
13868;SDS011;7004;48.206;16.402;2022-09-27T01:57:56;5.23;;;4.73;;
13868;SDS011;7004;48.206;16.402;2022-09-27T02:00:27;5.50;;;4.43;;
13868;SDS011;7004;48.206;16.402;2022-09-27T02:02:58;5.20;;;4.70;;
13868;SDS011;7004;48.206;16.402;2022-09-27T02:05:52;5.17;;;4.67;;
13868;SDS011;7004;48.206;16.402;2022-09-27T02:08:27;5.63;;;5.03;;
13868;SDS011;7004;48.206;16.402;2022-09-27T02:11:10;5.93;;;5.10;;
13868;SDS011;7004;48.206;16.402;2022-09-27T02:16:51;7.00;;;5.07;;
13868;SDS011;7004;48.206;16.402;2022-09-27T02:19:37;6.37;;;5.07;;
13868;SDS011;7004;48.206;16.402;2022-09-27T02:22:34;5.83;;;5.03;;
13868;SDS011;7004;48.206;16.402;2022-09-27T02:25:18;7.63;;;4.67;;
13868;SDS011;7004;48.206;16.402;2022-09-27T02:28:05;5.47;;;4.53;;
13868;SDS011;7004;48.206;16.402;2022-09-27T02:30:52;6.00;;;5.40;;
13868;SDS011;7004;48.206;16.402;2022-09-27T02:33:21;6.03;;;5.10;;
13868;SDS011;7004;48.206;16.402;2022-09-27T02:35:57;7.43;;;4.83;;
13868;SDS011;7004;48.206;16.402;2022-09-27T02:38:23;5.70;;;5.20;;
13868;SDS011;7004;48.206;16.402;2022-09-27T02:40:50;5.87;;;5.37;;
13868;SDS011;7004;48.206;16.402;2022-09-27T02:43:18;5.60;;;4.67;;
13868;SDS011;7004;48.206;16.402;2022-09-27T02:57:32;5.47;;;4.97;;
13868;SDS011;7004;48.206;16.402;2022-09-27T03:00:22;5.40;;;4.90;;
13868;SDS011;7004;48.206;16.402;2022-09-27T03:05:39;5.57;;;4.90;;
13868;SDS011;7004;48.206;16.402;2022-09-27T03:08:15;5.97;;;5.37;;
13868;SDS011;7004;48.206;16.402;2022-09-27T03:10:42;6.83;;;6.03;;
13868;SDS011;7004;48.206;16.402;2022-09-27T03:13:09;7.77;;;5.63;;
13868;SDS011;7004;48.206;16.402;2022-09-27T03:15:36;5.63;;;5.03;;
13868;SDS011;7004;48.206;16.402;2022-09-27T03:18:02;6.17;;;4.83;;
13868;SDS011;7004;48.206;16.402;2022-09-27T03:20:29;8.43;;;5.63;;
13868;SDS011;7004;48.206;16.402;2022-09-27T03:22:55;6.63;;;4.83;;
13868;SDS011;7004;48.206;16.402;2022-09-27T03:25:21;5.87;;;5.27;;
13868;SDS011;7004;48.206;16.402;2022-09-27T03:27:48;6.70;;;4.70;;
13868;SDS011;7004;48.206;16.402;2022-09-27T03:30:14;5.40;;;4.90;;
13868;SDS011;7004;48.206;16.402;2022-09-27T03:32:43;7.30;;;5.57;;
13868;SDS011;7004;48.206;16.402;2022-09-27T03:35:10;6.33;;;5.37;;
13868;SDS011;7004;48.206;16.402;2022-09-27T03:37:38;7.23;;;5.57;;
13868;SDS011;7004;48.206;16.402;2022-09-27T03:40:05;6.07;;;5.47;;
13868;SDS011;7004;48.206;16.402;2022-09-27T03:42:33;6.40;;;5.80;;
13868;SDS011;7004;48.206;16.402;2022-09-27T03:44:59;7.47;;;5.00;;
13868;SDS011;7004;48.206;16.402;2022-09-27T03:47:25;6.67;;;5.40;;
13868;SDS011;7004;48.206;16.402;2022-09-27T03:49:51;5.40;;;4.67;;
13868;SDS011;7004;48.206;16.402;2022-09-27T03:52:18;6.60;;;5.07;;
13868;SDS011;7004;48.206;16.402;2022-09-27T03:54:44;6.73;;;5.93;;
13868;SDS011;7004;48.206;16.402;2022-09-27T03:57:10;5.80;;;5.07;;
13868;SDS011;7004;48.206;16.402;2022-09-27T03:59:36;7.47;;;4.80;;
13868;SDS011;7004;48.206;16.402;2022-09-27T04:02:02;5.77;;;5.17;;
13868;SDS011;7004;48.206;16.402;2022-09-27T04:04:28;8.40;;;5.47;;
13868;SDS011;7004;48.206;16.402;2022-09-27T04:06:55;5.97;;;5.17;;
13868;SDS011;7004;48.206;16.402;2022-09-27T04:09:23;7.43;;;5.40;;
13868;SDS011;7004;48.206;16.402;2022-09-27T04:11:50;5.60;;;5.00;;
13868;SDS011;7004;48.206;16.402;2022-09-27T04:14:17;5.97;;;5.30;;
13868;SDS011;7004;48.206;16.402;2022-09-27T04:16:43;10.00;;;5.00;;
13868;SDS011;7004;48.206;16.402;2022-09-27T04:19:09;5.33;;;4.67;;
13868;SDS011;7004;48.206;16.402;2022-09-27T04:21:35;6.03;;;5.10;;
13868;SDS011;7004;48.206;16.402;2022-09-27T04:24:01;7.53;;;5.30;;
13868;SDS011;7004;48.206;16.402;2022-09-27T04:26:29;5.83;;;4.83;;
13868;SDS011;7004;48.206;16.402;2022-09-27T04:28:55;5.33;;;4.80;;
13868;SDS011;7004;48.206;16.402;2022-09-27T04:31:22;6.70;;;5.40;;
13868;SDS011;7004;48.206;16.402;2022-09-27T04:33:48;5.23;;;4.73;;
13868;SDS011;7004;48.206;16.402;2022-09-27T04:36:16;6.20;;;5.13;;
13868;SDS011;7004;48.206;16.402;2022-09-27T04:38:54;5.87;;;5.37;;
13868;SDS011;7004;48.206;16.402;2022-09-27T04:41:23;6.37;;;5.10;;
13868;SDS011;7004;48.206;16.402;2022-09-27T04:43:51;5.27;;;4.77;;
13868;SDS011;7004;48.206;16.402;2022-09-27T04:46:18;7.70;;;4.90;;
13868;SDS011;7004;48.206;16.402;2022-09-27T04:48:48;7.87;;;4.90;;
13868;SDS011;7004;48.206;16.402;2022-09-27T04:51:16;6.10;;;4.97;;
13868;SDS011;7004;48.206;16.402;2022-09-27T04:53:44;6.90;;;4.90;;
13868;SDS011;7004;48.206;16.402;2022-09-27T04:56:12;5.77;;;5.13;;
13868;SDS011;7004;48.206;16.402;2022-09-27T04:58:39;6.67;;;4.97;;
13868;SDS011;7004;48.206;16.402;2022-09-27T05:01:07;5.70;;;5.20;;
13868;SDS011;7004;48.206;16.402;2022-09-27T05:03:33;5.60;;;5.00;;
13868;SDS011;7004;48.206;16.402;2022-09-27T05:05:59;5.90;;;5.30;;
13868;SDS011;7004;48.206;16.402;2022-09-27T05:08:27;8.43;;;5.30;;
13868;SDS011;7004;48.206;16.402;2022-09-27T05:10:53;6.60;;;5.77;;
13868;SDS011;7004;48.206;16.402;2022-09-27T05:13:19;7.13;;;5.90;;
13868;SDS011;7004;48.206;16.402;2022-09-27T05:15:46;7.67;;;5.37;;
13868;SDS011;7004;48.206;16.402;2022-09-27T05:18:13;6.00;;;5.40;;
13868;SDS011;7004;48.206;16.402;2022-09-27T05:20:40;8.53;;;5.80;;
13868;SDS011;7004;48.206;16.402;2022-09-27T05:23:06;6.53;;;5.93;;
13868;SDS011;7004;48.206;16.402;2022-09-27T05:25:34;7.20;;;5.50;;
13868;SDS011;7004;48.206;16.402;2022-09-27T05:28:00;7.57;;;5.73;;
13868;SDS011;7004;48.206;16.402;2022-09-27T05:30:27;8.90;;;6.37;;
13868;SDS011;7004;48.206;16.402;2022-09-27T05:32:53;8.67;;;6.07;;
13868;SDS011;7004;48.206;16.402;2022-09-27T05:35:20;8.50;;;5.43;;
13868;SDS011;7004;48.206;16.402;2022-09-27T05:37:53;6.60;;;5.70;;
13868;SDS011;7004;48.206;16.402;2022-09-27T05:40:25;11.07;;;5.37;;
13868;SDS011;7004;48.206;16.402;2022-09-27T05:42:53;7.20;;;5.73;;
13868;SDS011;7004;48.206;16.402;2022-09-27T05:45:21;6.23;;;5.63;;
13868;SDS011;7004;48.206;16.402;2022-09-27T05:47:54;6.07;;;5.07;;
13868;SDS011;7004;48.206;16.402;2022-09-27T05:50:26;10.10;;;6.03;;
13868;SDS011;7004;48.206;16.402;2022-09-27T05:52:53;7.23;;;5.83;;
13868;SDS011;7004;48.206;16.402;2022-09-27T05:55:20;6.10;;;5.50;;
13868;SDS011;7004;48.206;16.402;2022-09-27T05:57:52;9.63;;;5.80;;
13868;SDS011;7004;48.206;16.402;2022-09-27T06:00:30;8.43;;;5.53;;
13868;SDS011;7004;48.206;16.402;2022-09-27T06:03:00;8.13;;;6.00;;
13868;SDS011;7004;48.206;16.402;2022-09-27T06:05:33;7.53;;;5.90;;
13868;SDS011;7004;48.206;16.402;2022-09-27T06:08:03;6.57;;;5.60;;
13868;SDS011;7004;48.206;16.402;2022-09-27T06:10:35;7.30;;;5.90;;
13868;SDS011;7004;48.206;16.402;2022-09-27T06:13:04;8.23;;;6.47;;
13868;SDS011;7004;48.206;16.402;2022-09-27T06:15:34;8.60;;;5.90;;
13868;SDS011;7004;48.206;16.402;2022-09-27T06:18:04;6.83;;;6.20;;
13868;SDS011;7004;48.206;16.402;2022-09-27T06:20:35;6.80;;;5.43;;
13868;SDS011;7004;48.206;16.402;2022-09-27T06:23:07;7.97;;;6.50;;
13868;SDS011;7004;48.206;16.402;2022-09-27T06:25:45;8.80;;;6.27;;
13868;SDS011;7004;48.206;16.402;2022-09-27T06:28:11;9.47;;;6.67;;
13868;SDS011;7004;48.206;16.402;2022-09-27T06:30:40;7.70;;;6.60;;
13868;SDS011;7004;48.206;16.402;2022-09-27T06:33:12;8.43;;;6.77;;
13868;SDS011;7004;48.206;16.402;2022-09-27T06:35:41;9.33;;;7.17;;
13868;SDS011;7004;48.206;16.402;2022-09-27T06:38:10;10.67;;;7.00;;
13868;SDS011;7004;48.206;16.402;2022-09-27T06:40:40;7.73;;;6.93;;
13868;SDS011;7004;48.206;16.402;2022-09-27T06:43:15;13.07;;;8.30;;
13868;SDS011;7004;48.206;16.402;2022-09-27T06:45:44;9.10;;;7.90;;
13868;SDS011;7004;48.206;16.402;2022-09-27T06:48:12;14.80;;;8.07;;
13868;SDS011;7004;48.206;16.402;2022-09-27T06:50:40;9.23;;;7.90;;
13868;SDS011;7004;48.206;16.402;2022-09-27T06:53:09;8.47;;;7.57;;
13868;SDS011;7004;48.206;16.402;2022-09-27T06:55:38;10.90;;;7.70;;
13868;SDS011;7004;48.206;16.402;2022-09-27T06:58:04;10.83;;;8.37;;
13868;SDS011;7004;48.206;16.402;2022-09-27T07:00:50;10.30;;;8.43;;
13868;SDS011;7004;48.206;16.402;2022-09-27T07:03:21;13.00;;;8.60;;
13868;SDS011;7004;48.206;16.402;2022-09-27T07:05:57;14.87;;;8.77;;
13868;SDS011;7004;48.206;16.402;2022-09-27T07:08:25;11.57;;;8.77;;
13868;SDS011;7004;48.206;16.402;2022-09-27T07:10:53;11.87;;;8.87;;
13868;SDS011;7004;48.206;16.402;2022-09-27T07:13:25;10.50;;;8.37;;
13868;SDS011;7004;48.206;16.402;2022-09-27T07:15:55;16.13;;;9.20;;
13868;SDS011;7004;48.206;16.402;2022-09-27T07:18:21;14.97;;;9.10;;
13868;SDS011;7004;48.206;16.402;2022-09-27T07:20:47;13.70;;;9.40;;
13868;SDS011;7004;48.206;16.402;2022-09-27T07:23:15;14.40;;;9.83;;
13868;SDS011;7004;48.206;16.402;2022-09-27T07:25:42;11.97;;;8.80;;
13868;SDS011;7004;48.206;16.402;2022-09-27T07:28:12;13.80;;;9.37;;
13868;SDS011;7004;48.206;16.402;2022-09-27T07:30:41;10.20;;;8.83;;
13868;SDS011;7004;48.206;16.402;2022-09-27T07:33:08;10.30;;;8.63;;
13868;SDS011;7004;48.206;16.402;2022-09-27T07:35:35;10.70;;;9.23;;
13868;SDS011;7004;48.206;16.402;2022-09-27T07:38:05;12.23;;;9.60;;
13868;SDS011;7004;48.206;16.402;2022-09-27T07:40:35;10.20;;;8.73;;
13868;SDS011;7004;48.206;16.402;2022-09-27T07:43:02;11.57;;;8.90;;
13868;SDS011;7004;48.206;16.402;2022-09-27T07:45:30;10.43;;;8.70;;
13868;SDS011;7004;48.206;16.402;2022-09-27T07:47:57;12.93;;;8.63;;
13868;SDS011;7004;48.206;16.402;2022-09-27T07:50:24;11.03;;;8.43;;
13868;SDS011;7004;48.206;16.402;2022-09-27T07:52:51;10.87;;;9.03;;
13868;SDS011;7004;48.206;16.402;2022-09-27T07:55:17;12.43;;;9.50;;
13868;SDS011;7004;48.206;16.402;2022-09-27T07:57:44;15.43;;;9.43;;
13868;SDS011;7004;48.206;16.402;2022-09-27T08:00:14;13.43;;;9.13;;
13868;SDS011;7004;48.206;16.402;2022-09-27T08:02:46;10.83;;;9.13;;
13868;SDS011;7004;48.206;16.402;2022-09-27T08:05:12;15.90;;;10.40;;
13868;SDS011;7004;48.206;16.402;2022-09-27T08:07:38;13.03;;;9.67;;
13868;SDS011;7004;48.206;16.402;2022-09-27T08:10:05;11.03;;;9.13;;
13868;SDS011;7004;48.206;16.402;2022-09-27T08:12:33;13.73;;;10.57;;
13868;SDS011;7004;48.206;16.402;2022-09-27T08:15:00;14.43;;;11.33;;
13868;SDS011;7004;48.206;16.402;2022-09-27T08:17:30;14.07;;;11.17;;
13868;SDS011;7004;48.206;16.402;2022-09-27T08:19:56;15.73;;;11.57;;
13868;SDS011;7004;48.206;16.402;2022-09-27T08:22:23;15.33;;;12.70;;
13868;SDS011;7004;48.206;16.402;2022-09-27T08:24:49;16.03;;;11.80;;
13868;SDS011;7004;48.206;16.402;2022-09-27T08:27:15;16.70;;;11.60;;
13868;SDS011;7004;48.206;16.402;2022-09-27T08:29:42;16.17;;;10.40;;
13868;SDS011;7004;48.206;16.402;2022-09-27T08:32:09;15.07;;;9.10;;
13868;SDS011;7004;48.206;16.402;2022-09-27T08:34:36;12.40;;;9.17;;
13868;SDS011;7004;48.206;16.402;2022-09-27T08:37:03;11.83;;;9.17;;
13868;SDS011;7004;48.206;16.402;2022-09-27T08:39:30;9.97;;;8.30;;
13868;SDS011;7004;48.206;16.402;2022-09-27T08:44:32;6.50;;;5.67;;
13868;SDS011;7004;48.206;16.402;2022-09-27T08:47:44;6.00;;;4.83;;
13868;SDS011;7004;48.206;16.402;2022-09-27T08:50:27;5.27;;;4.40;;
13868;SDS011;7004;48.206;16.402;2022-09-27T08:58:19;5.77;;;5.13;;
13868;SDS011;7004;48.206;16.402;2022-09-27T09:01:17;7.87;;;4.93;;
13868;SDS011;7004;48.206;16.402;2022-09-27T09:03:45;8.87;;;5.57;;
13868;SDS011;7004;48.206;16.402;2022-09-27T09:06:28;5.30;;;4.70;;
13868;SDS011;7004;48.206;16.402;2022-09-27T09:09:30;4.60;;;4.17;;
13868;SDS011;7004;48.206;16.402;2022-09-27T09:15:11;4.60;;;4.10;;
13868;SDS011;7004;48.206;16.402;2022-09-27T09:17:54;4.40;;;4.00;;
13868;SDS011;7004;48.206;16.402;2022-09-27T09:35:46;4.60;;;4.13;;
13868;SDS011;7004;48.206;16.402;2022-09-27T09:44:09;4.00;;;3.63;;
13868;SDS011;7004;48.206;16.402;2022-09-27T09:46:51;3.73;;;3.17;;
13868;SDS011;7004;48.206;16.402;2022-09-27T09:49:23;4.50;;;3.40;;
13868;SDS011;7004;48.206;16.402;2022-09-27T09:52:03;3.53;;;3.23;;
13868;SDS011;7004;48.206;16.402;2022-09-27T09:54:42;3.77;;;3.13;;
13868;SDS011;7004;48.206;16.402;2022-09-27T09:57:14;3.53;;;3.23;;
13868;SDS011;7004;48.206;16.402;2022-09-27T09:59:59;3.40;;;3.10;;
13868;SDS011;7004;48.206;16.402;2022-09-27T10:02:49;4.80;;;3.00;;
13868;SDS011;7004;48.206;16.402;2022-09-27T10:05:19;3.37;;;2.77;;
13868;SDS011;7004;48.206;16.402;2022-09-27T10:07:50;3.17;;;2.87;;
13868;SDS011;7004;48.206;16.402;2022-09-27T10:10:19;3.93;;;3.20;;
13868;SDS011;7004;48.206;16.402;2022-09-27T10:12:46;4.07;;;3.07;;
13868;SDS011;7004;48.206;16.402;2022-09-27T10:15:14;3.17;;;2.87;;
13868;SDS011;7004;48.206;16.402;2022-09-27T10:17:50;4.50;;;3.30;;
13868;SDS011;7004;48.206;16.402;2022-09-27T10:23:00;5.27;;;3.60;;
13868;SDS011;7004;48.206;16.402;2022-09-27T10:25:53;5.63;;;3.63;;
13868;SDS011;7004;48.206;16.402;2022-09-27T10:31:07;4.00;;;3.60;;
13868;SDS011;7004;48.206;16.402;2022-09-27T10:33:37;3.97;;;3.57;;
13868;SDS011;7004;48.206;16.402;2022-09-27T10:36:25;4.97;;;4.00;;
13868;SDS011;7004;48.206;16.402;2022-09-27T10:38:55;4.30;;;3.70;;
13868;SDS011;7004;48.206;16.402;2022-09-27T10:46:43;4.57;;;3.63;;
13868;SDS011;7004;48.206;16.402;2022-09-27T10:52:05;4.13;;;2.70;;
13868;SDS011;7004;48.206;16.402;2022-09-27T10:54:40;2.33;;;2.13;;
13868;SDS011;7004;48.206;16.402;2022-09-27T10:59:51;4.40;;;2.20;;
13868;SDS011;7004;48.206;16.402;2022-09-27T11:02:26;2.50;;;2.30;;
13868;SDS011;7004;48.206;16.402;2022-09-27T11:07:54;2.13;;;1.93;;
13868;SDS011;7004;48.206;16.402;2022-09-27T11:13:31;4.03;;;2.70;;
13868;SDS011;7004;48.206;16.402;2022-09-27T11:16:06;3.23;;;2.13;;
13868;SDS011;7004;48.206;16.402;2022-09-27T11:48:08;1.97;;;1.53;;
13868;SDS011;7004;48.206;16.402;2022-09-27T11:51:44;2.97;;;2.00;;
13868;SDS011;7004;48.206;16.402;2022-09-27T11:54:33;2.40;;;1.73;;
13868;SDS011;7004;48.206;16.402;2022-09-27T11:57:35;1.77;;;1.67;;
13868;SDS011;7004;48.206;16.402;2022-09-27T12:00:13;2.20;;;2.00;;
13868;SDS011;7004;48.206;16.402;2022-09-27T12:08:31;3.63;;;2.37;;
13868;SDS011;7004;48.206;16.402;2022-09-27T12:11:32;3.00;;;2.20;;
13868;SDS011;7004;48.206;16.402;2022-09-27T12:16:57;2.47;;;1.70;;
13868;SDS011;7004;48.206;16.402;2022-09-27T12:19:28;2.47;;;1.93;;
13868;SDS011;7004;48.206;16.402;2022-09-27T12:22:01;2.30;;;1.77;;
13868;SDS011;7004;48.206;16.402;2022-09-27T12:24:31;2.70;;;1.90;;
13868;SDS011;7004;48.206;16.402;2022-09-27T12:27:00;1.77;;;1.63;;
13868;SDS011;7004;48.206;16.402;2022-09-27T12:29:41;2.37;;;1.90;;
13868;SDS011;7004;48.206;16.402;2022-09-27T12:38:02;3.80;;;2.00;;
13868;SDS011;7004;48.206;16.402;2022-09-27T12:40:53;3.53;;;1.80;;
13868;SDS011;7004;48.206;16.402;2022-09-27T12:43:24;1.70;;;1.60;;
13868;SDS011;7004;48.206;16.402;2022-09-27T12:51:21;2.50;;;1.87;;
13868;SDS011;7004;48.206;16.402;2022-09-27T13:04:50;3.13;;;2.00;;
13868;SDS011;7004;48.206;16.402;2022-09-27T13:10:53;2.87;;;2.00;;
13868;SDS011;7004;48.206;16.402;2022-09-27T13:13:58;1.87;;;1.77;;
13868;SDS011;7004;48.206;16.402;2022-09-27T13:16:27;2.70;;;1.90;;
13868;SDS011;7004;48.206;16.402;2022-09-27T13:18:54;3.67;;;1.70;;
13868;SDS011;7004;48.206;16.402;2022-09-27T13:30:41;2.30;;;1.70;;
13868;SDS011;7004;48.206;16.402;2022-09-27T13:35:38;4.37;;;1.57;;
13868;SDS011;7004;48.206;16.402;2022-09-27T13:38:17;3.53;;;2.00;;
13868;SDS011;7004;48.206;16.402;2022-09-27T13:40:49;3.40;;;1.60;;
13868;SDS011;7004;48.206;16.402;2022-09-27T13:44:00;2.63;;;1.60;;
13868;SDS011;7004;48.206;16.402;2022-09-27T13:46:30;2.83;;;2.10;;
13868;SDS011;7004;48.206;16.402;2022-09-27T13:51:56;2.40;;;1.70;;
13868;SDS011;7004;48.206;16.402;2022-09-27T13:54:52;3.33;;;1.90;;
13868;SDS011;7004;48.206;16.402;2022-09-27T14:00:21;2.53;;;1.60;;
13868;SDS011;7004;48.206;16.402;2022-09-27T14:03:13;2.40;;;1.87;;
13868;SDS011;7004;48.206;16.402;2022-09-27T14:05:48;2.67;;;2.00;;
13868;SDS011;7004;48.206;16.402;2022-09-27T14:11:17;3.03;;;2.00;;
13868;SDS011;7004;48.206;16.402;2022-09-27T14:13:59;1.87;;;1.70;;
13868;SDS011;7004;48.206;16.402;2022-09-27T14:16:29;3.30;;;1.83;;
13868;SDS011;7004;48.206;16.402;2022-09-27T14:19:00;1.57;;;1.47;;
13868;SDS011;7004;48.206;16.402;2022-09-27T14:21:29;2.67;;;1.40;;
13868;SDS011;7004;48.206;16.402;2022-09-27T14:27:14;2.70;;;1.10;;
13868;SDS011;7004;48.206;16.402;2022-09-27T14:29:57;0.80;;;0.80;;
13868;SDS011;7004;48.206;16.402;2022-09-27T14:32:32;1.10;;;1.00;;
13868;SDS011;7004;48.206;16.402;2022-09-27T14:35:03;1.23;;;1.00;;
13868;SDS011;7004;48.206;16.402;2022-09-27T14:37:59;1.07;;;0.80;;
13868;SDS011;7004;48.206;16.402;2022-09-27T14:40:32;0.80;;;0.80;;
13868;SDS011;7004;48.206;16.402;2022-09-27T14:43:32;2.27;;;0.80;;
13868;SDS011;7004;48.206;16.402;2022-09-27T14:46:05;1.20;;;0.90;;
13868;SDS011;7004;48.206;16.402;2022-09-27T14:48:33;2.23;;;1.07;;
13868;SDS011;7004;48.206;16.402;2022-09-27T14:51:49;2.30;;;0.80;;
13868;SDS011;7004;48.206;16.402;2022-09-27T14:53:55;0.87;;;0.87;;
13868;SDS011;7004;48.206;16.402;2022-09-27T14:56:34;1.97;;;1.10;;
13868;SDS011;7004;48.206;16.402;2022-09-27T14:59:09;3.70;;;1.00;;
13868;SDS011;7004;48.206;16.402;2022-09-27T15:01:51;1.67;;;1.10;;
13868;SDS011;7004;48.206;16.402;2022-09-27T15:04:19;4.17;;;1.30;;
13868;SDS011;7004;48.206;16.402;2022-09-27T15:06:47;1.20;;;1.10;;
13868;SDS011;7004;48.206;16.402;2022-09-27T15:09:14;3.27;;;1.30;;
13868;SDS011;7004;48.206;16.402;2022-09-27T15:11:43;1.13;;;1.03;;
13868;SDS011;7004;48.206;16.402;2022-09-27T15:14:16;1.23;;;1.07;;
13868;SDS011;7004;48.206;16.402;2022-09-27T15:16:46;1.70;;;1.10;;
13868;SDS011;7004;48.206;16.402;2022-09-27T15:19:20;4.27;;;0.90;;
13868;SDS011;7004;48.206;16.402;2022-09-27T15:21:51;1.43;;;0.90;;
13868;SDS011;7004;48.206;16.402;2022-09-27T15:24:37;1.20;;;1.10;;
13868;SDS011;7004;48.206;16.402;2022-09-27T15:27:14;1.00;;;1.00;;
13868;SDS011;7004;48.206;16.402;2022-09-27T15:29:53;2.20;;;0.97;;
13868;SDS011;7004;48.206;16.402;2022-09-27T15:32:24;1.50;;;1.20;;
13868;SDS011;7004;48.206;16.402;2022-09-27T15:34:53;3.80;;;1.30;;
13868;SDS011;7004;48.206;16.402;2022-09-27T15:37:32;1.77;;;1.20;;
13868;SDS011;7004;48.206;16.402;2022-09-27T15:42:59;2.13;;;1.20;;
13868;SDS011;7004;48.206;16.402;2022-09-27T15:45:33;1.67;;;1.13;;
13868;SDS011;7004;48.206;16.402;2022-09-27T15:48:10;3.10;;;1.00;;
13868;SDS011;7004;48.206;16.402;2022-09-27T15:50:40;3.43;;;1.43;;
13868;SDS011;7004;48.206;16.402;2022-09-27T15:53:10;2.50;;;1.20;;
13868;SDS011;7004;48.206;16.402;2022-09-27T15:55:57;2.03;;;1.30;;
13868;SDS011;7004;48.206;16.402;2022-09-27T15:58:25;1.20;;;1.10;;
13868;SDS011;7004;48.206;16.402;2022-09-27T16:01:00;1.33;;;1.20;;
13868;SDS011;7004;48.206;16.402;2022-09-27T16:03:30;2.30;;;1.30;;
13868;SDS011;7004;48.206;16.402;2022-09-27T16:05:59;2.33;;;1.50;;
13868;SDS011;7004;48.206;16.402;2022-09-27T16:08:28;4.77;;;2.30;;
13868;SDS011;7004;48.206;16.402;2022-09-27T16:10:55;1.73;;;1.50;;
13868;SDS011;7004;48.206;16.402;2022-09-27T16:13:25;4.80;;;1.60;;
13868;SDS011;7004;48.206;16.402;2022-09-27T16:15:52;3.20;;;1.70;;
13868;SDS011;7004;48.206;16.402;2022-09-27T16:18:18;2.50;;;1.30;;
13868;SDS011;7004;48.206;16.402;2022-09-27T16:20:44;1.40;;;1.23;;
13868;SDS011;7004;48.206;16.402;2022-09-27T16:23:10;1.77;;;1.30;;
13868;SDS011;7004;48.206;16.402;2022-09-27T16:25:36;4.43;;;1.10;;
13868;SDS011;7004;48.206;16.402;2022-09-27T16:28:03;2.27;;;1.20;;
13868;SDS011;7004;48.206;16.402;2022-09-27T16:30:30;1.63;;;1.27;;
13868;SDS011;7004;48.206;16.402;2022-09-27T16:32:57;2.87;;;1.40;;
13868;SDS011;7004;48.206;16.402;2022-09-27T16:35:24;1.87;;;1.50;;
13868;SDS011;7004;48.206;16.402;2022-09-27T16:37:51;2.80;;;1.10;;
13868;SDS011;7004;48.206;16.402;2022-09-27T16:40:17;3.90;;;1.20;;
13868;SDS011;7004;48.206;16.402;2022-09-27T16:42:44;4.03;;;1.70;;
13868;SDS011;7004;48.206;16.402;2022-09-27T16:45:13;2.27;;;1.37;;
13868;SDS011;7004;48.206;16.402;2022-09-27T16:47:42;1.23;;;1.13;;
13868;SDS011;7004;48.206;16.402;2022-09-27T16:50:10;1.43;;;1.23;;
13868;SDS011;7004;48.206;16.402;2022-09-27T16:52:57;1.60;;;1.40;;
13868;SDS011;7004;48.206;16.402;2022-09-27T16:55:24;3.13;;;1.60;;
13868;SDS011;7004;48.206;16.402;2022-09-27T16:57:53;1.10;;;1.00;;
13868;SDS011;7004;48.206;16.402;2022-09-27T17:00:21;1.87;;;1.40;;
13868;SDS011;7004;48.206;16.402;2022-09-27T17:02:48;2.63;;;1.10;;
13868;SDS011;7004;48.206;16.402;2022-09-27T17:05:15;2.00;;;1.10;;
13868;SDS011;7004;48.206;16.402;2022-09-27T17:07:48;1.10;;;1.00;;
13868;SDS011;7004;48.206;16.402;2022-09-27T17:10:19;2.13;;;1.37;;
13868;SDS011;7004;48.206;16.402;2022-09-27T17:12:59;1.57;;;1.33;;
13868;SDS011;7004;48.206;16.402;2022-09-27T17:15:26;3.33;;;2.57;;
13868;SDS011;7004;48.206;16.402;2022-09-27T17:17:52;13.90;;;10.50;;
13868;SDS011;7004;48.206;16.402;2022-09-27T17:20:18;10.00;;;7.80;;
13868;SDS011;7004;48.206;16.402;2022-09-27T17:22:45;2.77;;;2.53;;
13868;SDS011;7004;48.206;16.402;2022-09-27T17:25:11;2.93;;;1.83;;
13868;SDS011;7004;48.206;16.402;2022-09-27T17:27:37;1.50;;;1.40;;
13868;SDS011;7004;48.206;16.402;2022-09-27T17:30:03;1.50;;;1.40;;
13868;SDS011;7004;48.206;16.402;2022-09-27T17:32:31;1.30;;;1.20;;
13868;SDS011;7004;48.206;16.402;2022-09-27T17:34:57;1.40;;;1.30;;
13868;SDS011;7004;48.206;16.402;2022-09-27T17:37:23;2.93;;;1.40;;
13868;SDS011;7004;48.206;16.402;2022-09-27T17:39:49;2.33;;;2.03;;
13868;SDS011;7004;48.206;16.402;2022-09-27T17:42:15;1.90;;;1.40;;
13868;SDS011;7004;48.206;16.402;2022-09-27T17:44:43;2.87;;;1.33;;
13868;SDS011;7004;48.206;16.402;2022-09-27T17:47:10;1.23;;;1.13;;
13868;SDS011;7004;48.206;16.402;2022-09-27T17:49:55;2.13;;;1.80;;
13868;SDS011;7004;48.206;16.402;2022-09-27T17:52:40;3.40;;;1.70;;
13868;SDS011;7004;48.206;16.402;2022-09-27T17:55:06;1.53;;;1.43;;
13868;SDS011;7004;48.206;16.402;2022-09-27T17:57:32;1.30;;;1.20;;
13868;SDS011;7004;48.206;16.402;2022-09-27T17:59:59;2.90;;;1.40;;
13868;SDS011;7004;48.206;16.402;2022-09-27T18:02:25;1.70;;;1.30;;
13868;SDS011;7004;48.206;16.402;2022-09-27T18:04:51;1.80;;;1.50;;
13868;SDS011;7004;48.206;16.402;2022-09-27T18:07:17;1.23;;;1.13;;
13868;SDS011;7004;48.206;16.402;2022-09-27T18:09:44;1.50;;;1.30;;
13868;SDS011;7004;48.206;16.402;2022-09-27T18:12:10;1.50;;;1.10;;
13868;SDS011;7004;48.206;16.402;2022-09-27T18:14:38;1.87;;;1.40;;
13868;SDS011;7004;48.206;16.402;2022-09-27T18:17:04;2.97;;;1.63;;
13868;SDS011;7004;48.206;16.402;2022-09-27T18:19:32;1.47;;;1.37;;
13868;SDS011;7004;48.206;16.402;2022-09-27T18:21:59;3.70;;;1.80;;
13868;SDS011;7004;48.206;16.402;2022-09-27T18:24:25;2.73;;;1.23;;